sensor_id;sensor_type;location;lat;lon;timestamp;P1;durP1;ratioP1;P2;durP2;ratioP2
2840;SDS011;53423;49.224;12.074;2023-02-15T00:02:02;15.30;;;10.13;;
2840;SDS011;53423;49.224;12.074;2023-02-15T00:04:31;14.43;;;10.17;;
2840;SDS011;53423;49.224;12.074;2023-02-15T00:07:14;16.37;;;10.57;;
2840;SDS011;53423;49.224;12.074;2023-02-15T00:09:43;17.13;;;11.67;;
2840;SDS011;53423;49.224;12.074;2023-02-15T00:12:12;16.07;;;10.73;;
2840;SDS011;53423;49.224;12.074;2023-02-15T00:14:41;13.60;;;9.77;;
2840;SDS011;53423;49.224;12.074;2023-02-15T00:17:09;16.10;;;10.47;;
2840;SDS011;53423;49.224;12.074;2023-02-15T00:19:39;17.03;;;11.23;;
2840;SDS011;53423;49.224;12.074;2023-02-15T00:22:07;15.93;;;10.27;;
2840;SDS011;53423;49.224;12.074;2023-02-15T00:24:35;16.27;;;10.67;;
2840;SDS011;53423;49.224;12.074;2023-02-15T00:27:03;16.63;;;10.23;;
2840;SDS011;53423;49.224;12.074;2023-02-15T00:29:31;14.60;;;10.13;;
2840;SDS011;53423;49.224;12.074;2023-02-15T00:31:59;17.00;;;10.13;;
2840;SDS011;53423;49.224;12.074;2023-02-15T00:34:27;13.60;;;10.00;;
2840;SDS011;53423;49.224;12.074;2023-02-15T00:36:57;17.70;;;10.97;;
2840;SDS011;53423;49.224;12.074;2023-02-15T00:39:25;13.27;;;9.90;;
2840;SDS011;53423;49.224;12.074;2023-02-15T00:41:53;15.60;;;10.07;;
2840;SDS011;53423;49.224;12.074;2023-02-15T00:44:21;15.33;;;9.77;;
2840;SDS011;53423;49.224;12.074;2023-02-15T00:46:49;15.47;;;10.50;;
2840;SDS011;53423;49.224;12.074;2023-02-15T00:49:17;17.13;;;10.17;;
2840;SDS011;53423;49.224;12.074;2023-02-15T00:51:45;15.20;;;10.57;;
2840;SDS011;53423;49.224;12.074;2023-02-15T00:54:14;15.23;;;10.50;;
2840;SDS011;53423;49.224;12.074;2023-02-15T00:56:42;15.40;;;9.73;;
2840;SDS011;53423;49.224;12.074;2023-02-15T00:59:10;16.40;;;10.67;;
2840;SDS011;53423;49.224;12.074;2023-02-15T01:01:38;15.57;;;10.03;;
2840;SDS011;53423;49.224;12.074;2023-02-15T01:04:05;14.67;;;9.97;;
2840;SDS011;53423;49.224;12.074;2023-02-15T01:06:34;15.80;;;11.27;;
2840;SDS011;53423;49.224;12.074;2023-02-15T01:09:02;17.07;;;11.37;;
2840;SDS011;53423;49.224;12.074;2023-02-15T01:11:31;13.43;;;9.60;;
2840;SDS011;53423;49.224;12.074;2023-02-15T01:13:59;15.50;;;10.43;;
2840;SDS011;53423;49.224;12.074;2023-02-15T01:16:29;13.87;;;10.10;;
2840;SDS011;53423;49.224;12.074;2023-02-15T01:18:57;13.17;;;9.57;;
2840;SDS011;53423;49.224;12.074;2023-02-15T01:21:25;15.13;;;9.77;;
2840;SDS011;53423;49.224;12.074;2023-02-15T01:23:53;14.63;;;10.17;;
2840;SDS011;53423;49.224;12.074;2023-02-15T01:26:21;15.27;;;10.07;;
2840;SDS011;53423;49.224;12.074;2023-02-15T01:28:50;14.00;;;10.17;;
2840;SDS011;53423;49.224;12.074;2023-02-15T01:31:19;12.70;;;9.17;;
2840;SDS011;53423;49.224;12.074;2023-02-15T01:33:48;14.60;;;9.90;;
2840;SDS011;53423;49.224;12.074;2023-02-15T01:36:17;15.17;;;9.87;;
2840;SDS011;53423;49.224;12.074;2023-02-15T01:38:44;13.17;;;9.97;;
2840;SDS011;53423;49.224;12.074;2023-02-15T01:41:13;16.27;;;10.57;;
2840;SDS011;53423;49.224;12.074;2023-02-15T01:43:51;14.93;;;9.80;;
2840;SDS011;53423;49.224;12.074;2023-02-15T01:46:23;15.00;;;10.07;;
2840;SDS011;53423;49.224;12.074;2023-02-15T01:48:56;15.40;;;10.20;;
2840;SDS011;53423;49.224;12.074;2023-02-15T01:51:30;16.60;;;11.17;;
2840;SDS011;53423;49.224;12.074;2023-02-15T01:54:02;17.00;;;10.70;;
2840;SDS011;53423;49.224;12.074;2023-02-15T01:56:37;15.30;;;9.87;;
2840;SDS011;53423;49.224;12.074;2023-02-15T01:59:09;14.93;;;10.33;;
2840;SDS011;53423;49.224;12.074;2023-02-15T02:01:43;15.63;;;10.47;;
2840;SDS011;53423;49.224;12.074;2023-02-15T02:04:13;15.63;;;10.70;;
2840;SDS011;53423;49.224;12.074;2023-02-15T02:06:44;18.50;;;9.40;;
2840;SDS011;53423;49.224;12.074;2023-02-15T02:09:16;13.30;;;9.60;;
2840;SDS011;53423;49.224;12.074;2023-02-15T02:11:45;13.77;;;8.87;;
2840;SDS011;53423;49.224;12.074;2023-02-15T02:14:16;12.37;;;8.63;;
2840;SDS011;53423;49.224;12.074;2023-02-15T02:16:46;11.13;;;8.53;;
2840;SDS011;53423;49.224;12.074;2023-02-15T02:19:32;14.33;;;9.07;;
2840;SDS011;53423;49.224;12.074;2023-02-15T02:22:31;16.10;;;10.03;;
2840;SDS011;53423;49.224;12.074;2023-02-15T02:28:41;15.00;;;10.03;;
2840;SDS011;53423;49.224;12.074;2023-02-15T02:31:47;15.13;;;9.20;;
2840;SDS011;53423;49.224;12.074;2023-02-15T02:34:35;17.87;;;9.87;;
2840;SDS011;53423;49.224;12.074;2023-02-15T02:37:11;14.87;;;10.27;;
2840;SDS011;53423;49.224;12.074;2023-02-15T02:39:48;16.03;;;10.70;;
2840;SDS011;53423;49.224;12.074;2023-02-15T02:42:23;13.53;;;10.07;;
2840;SDS011;53423;49.224;12.074;2023-02-15T02:44:57;20.37;;;11.27;;
2840;SDS011;53423;49.224;12.074;2023-02-15T02:47:30;18.33;;;10.93;;
2840;SDS011;53423;49.224;12.074;2023-02-15T02:50:06;17.00;;;10.63;;
2840;SDS011;53423;49.224;12.074;2023-02-15T02:52:39;17.90;;;9.80;;
2840;SDS011;53423;49.224;12.074;2023-02-15T02:55:10;17.30;;;11.50;;
2840;SDS011;53423;49.224;12.074;2023-02-15T02:57:43;14.73;;;9.73;;
2840;SDS011;53423;49.224;12.074;2023-02-15T03:00:19;14.03;;;8.93;;
2840;SDS011;53423;49.224;12.074;2023-02-15T03:02:50;14.63;;;9.37;;
2840;SDS011;53423;49.224;12.074;2023-02-15T03:05:24;15.33;;;10.20;;
2840;SDS011;53423;49.224;12.074;2023-02-15T03:07:57;19.07;;;9.93;;
2840;SDS011;53423;49.224;12.074;2023-02-15T03:10:27;18.73;;;10.13;;
2840;SDS011;53423;49.224;12.074;2023-02-15T03:12:56;18.37;;;10.40;;
2840;SDS011;53423;49.224;12.074;2023-02-15T03:15:26;21.67;;;11.17;;
2840;SDS011;53423;49.224;12.074;2023-02-15T03:18:18;16.87;;;10.27;;
2840;SDS011;53423;49.224;12.074;2023-02-15T03:20:51;16.93;;;10.37;;
2840;SDS011;53423;49.224;12.074;2023-02-15T03:23:21;18.47;;;10.50;;
2840;SDS011;53423;49.224;12.074;2023-02-15T03:25:52;17.13;;;10.50;;
2840;SDS011;53423;49.224;12.074;2023-02-15T03:28:25;18.57;;;9.97;;
2840;SDS011;53423;49.224;12.074;2023-02-15T03:30:58;16.97;;;10.80;;
2840;SDS011;53423;49.224;12.074;2023-02-15T03:33:30;17.90;;;10.73;;
2840;SDS011;53423;49.224;12.074;2023-02-15T03:36:01;14.50;;;9.70;;
2840;SDS011;53423;49.224;12.074;2023-02-15T03:38:36;15.30;;;10.53;;
2840;SDS011;53423;49.224;12.074;2023-02-15T03:41:10;15.50;;;10.53;;
2840;SDS011;53423;49.224;12.074;2023-02-15T03:43:44;17.97;;;11.10;;
2840;SDS011;53423;49.224;12.074;2023-02-15T03:46:17;13.77;;;9.20;;
2840;SDS011;53423;49.224;12.074;2023-02-15T03:48:52;13.43;;;9.00;;
2840;SDS011;53423;49.224;12.074;2023-02-15T03:51:25;14.67;;;10.50;;
2840;SDS011;53423;49.224;12.074;2023-02-15T03:54:05;16.47;;;10.30;;
2840;SDS011;53423;49.224;12.074;2023-02-15T03:56:36;16.27;;;10.93;;
2840;SDS011;53423;49.224;12.074;2023-02-15T03:59:06;16.07;;;10.47;;
2840;SDS011;53423;49.224;12.074;2023-02-15T04:01:54;15.27;;;10.20;;
2840;SDS011;53423;49.224;12.074;2023-02-15T04:04:33;15.47;;;10.10;;
2840;SDS011;53423;49.224;12.074;2023-02-15T04:07:05;12.83;;;9.30;;
2840;SDS011;53423;49.224;12.074;2023-02-15T04:09:35;14.20;;;9.30;;
2840;SDS011;53423;49.224;12.074;2023-02-15T04:12:21;14.00;;;9.87;;
2840;SDS011;53423;49.224;12.074;2023-02-15T04:14:49;16.37;;;10.47;;
2840;SDS011;53423;49.224;12.074;2023-02-15T04:17:35;14.87;;;10.77;;
2840;SDS011;53423;49.224;12.074;2023-02-15T04:20:04;14.57;;;9.50;;
2840;SDS011;53423;49.224;12.074;2023-02-15T04:22:51;13.40;;;9.20;;
2840;SDS011;53423;49.224;12.074;2023-02-15T04:25:37;15.00;;;10.33;;
2840;SDS011;53423;49.224;12.074;2023-02-15T04:28:04;16.40;;;10.37;;
2840;SDS011;53423;49.224;12.074;2023-02-15T04:30:33;15.00;;;9.30;;
2840;SDS011;53423;49.224;12.074;2023-02-15T04:33:01;14.37;;;9.83;;
2840;SDS011;53423;49.224;12.074;2023-02-15T04:35:30;15.10;;;9.90;;
2840;SDS011;53423;49.224;12.074;2023-02-15T04:38:01;15.10;;;10.23;;
2840;SDS011;53423;49.224;12.074;2023-02-15T04:40:28;15.03;;;10.03;;
2840;SDS011;53423;49.224;12.074;2023-02-15T04:42:57;17.73;;;11.40;;
2840;SDS011;53423;49.224;12.074;2023-02-15T04:45:24;16.43;;;10.93;;
2840;SDS011;53423;49.224;12.074;2023-02-15T04:47:53;15.13;;;10.13;;
2840;SDS011;53423;49.224;12.074;2023-02-15T04:50:21;16.30;;;10.63;;
2840;SDS011;53423;49.224;12.074;2023-02-15T04:52:49;18.70;;;11.43;;
2840;SDS011;53423;49.224;12.074;2023-02-15T04:55:19;15.83;;;11.47;;
2840;SDS011;53423;49.224;12.074;2023-02-15T04:57:46;17.83;;;10.30;;
2840;SDS011;53423;49.224;12.074;2023-02-15T05:00:15;13.63;;;9.47;;
2840;SDS011;53423;49.224;12.074;2023-02-15T05:02:43;14.23;;;10.10;;
2840;SDS011;53423;49.224;12.074;2023-02-15T05:05:14;15.90;;;10.50;;
2840;SDS011;53423;49.224;12.074;2023-02-15T05:07:42;14.77;;;9.53;;
2840;SDS011;53423;49.224;12.074;2023-02-15T05:10:10;15.07;;;9.87;;
2840;SDS011;53423;49.224;12.074;2023-02-15T05:12:39;14.03;;;9.70;;
2840;SDS011;53423;49.224;12.074;2023-02-15T05:15:07;13.53;;;9.77;;
2840;SDS011;53423;49.224;12.074;2023-02-15T05:17:36;16.50;;;10.50;;
2840;SDS011;53423;49.224;12.074;2023-02-15T05:20:07;16.50;;;10.60;;
2840;SDS011;53423;49.224;12.074;2023-02-15T05:22:35;16.07;;;10.70;;
2840;SDS011;53423;49.224;12.074;2023-02-15T05:25:04;20.00;;;11.53;;
2840;SDS011;53423;49.224;12.074;2023-02-15T05:27:50;19.00;;;11.27;;
2840;SDS011;53423;49.224;12.074;2023-02-15T05:30:38;21.03;;;11.03;;
2840;SDS011;53423;49.224;12.074;2023-02-15T05:33:07;15.83;;;10.23;;
2840;SDS011;53423;49.224;12.074;2023-02-15T05:35:35;19.40;;;11.17;;
2840;SDS011;53423;49.224;12.074;2023-02-15T05:38:03;19.23;;;10.90;;
2840;SDS011;53423;49.224;12.074;2023-02-15T05:40:31;30.43;;;11.43;;
2840;SDS011;53423;49.224;12.074;2023-02-15T05:43:00;17.83;;;11.13;;
2840;SDS011;53423;49.224;12.074;2023-02-15T05:45:28;22.80;;;11.17;;
2840;SDS011;53423;49.224;12.074;2023-02-15T05:47:56;16.93;;;11.23;;
2840;SDS011;53423;49.224;12.074;2023-02-15T05:50:25;18.37;;;10.73;;
2840;SDS011;53423;49.224;12.074;2023-02-15T05:52:53;15.70;;;9.63;;
2840;SDS011;53423;49.224;12.074;2023-02-15T05:55:21;17.40;;;10.33;;
2840;SDS011;53423;49.224;12.074;2023-02-15T05:57:49;17.50;;;10.23;;
2840;SDS011;53423;49.224;12.074;2023-02-15T06:00:19;15.57;;;10.90;;
2840;SDS011;53423;49.224;12.074;2023-02-15T06:02:47;16.30;;;10.20;;
2840;SDS011;53423;49.224;12.074;2023-02-15T06:05:15;20.27;;;10.20;;
2840;SDS011;53423;49.224;12.074;2023-02-15T06:07:43;19.37;;;10.50;;
2840;SDS011;53423;49.224;12.074;2023-02-15T06:10:12;21.43;;;11.27;;
2840;SDS011;53423;49.224;12.074;2023-02-15T06:12:39;15.87;;;10.33;;
2840;SDS011;53423;49.224;12.074;2023-02-15T06:15:08;17.60;;;10.40;;
2840;SDS011;53423;49.224;12.074;2023-02-15T06:17:37;19.33;;;11.53;;
2840;SDS011;53423;49.224;12.074;2023-02-15T06:20:08;16.43;;;10.73;;
2840;SDS011;53423;49.224;12.074;2023-02-15T06:22:36;16.47;;;10.73;;
2840;SDS011;53423;49.224;12.074;2023-02-15T06:25:04;18.17;;;10.90;;
2840;SDS011;53423;49.224;12.074;2023-02-15T06:27:36;19.23;;;11.50;;
2840;SDS011;53423;49.224;12.074;2023-02-15T06:30:05;25.47;;;11.73;;
2840;SDS011;53423;49.224;12.074;2023-02-15T06:32:34;18.93;;;10.83;;
2840;SDS011;53423;49.224;12.074;2023-02-15T06:35:04;20.87;;;11.57;;
2840;SDS011;53423;49.224;12.074;2023-02-15T06:37:32;18.47;;;11.90;;
2840;SDS011;53423;49.224;12.074;2023-02-15T06:40:00;19.90;;;11.87;;
2840;SDS011;53423;49.224;12.074;2023-02-15T06:42:29;19.73;;;10.87;;
2840;SDS011;53423;49.224;12.074;2023-02-15T06:44:57;22.33;;;12.37;;
2840;SDS011;53423;49.224;12.074;2023-02-15T06:47:26;17.90;;;11.33;;
2840;SDS011;53423;49.224;12.074;2023-02-15T06:49:54;20.67;;;11.90;;
2840;SDS011;53423;49.224;12.074;2023-02-15T06:52:23;21.53;;;12.27;;
2840;SDS011;53423;49.224;12.074;2023-02-15T06:54:51;25.57;;;11.83;;
2840;SDS011;53423;49.224;12.074;2023-02-15T06:57:19;17.40;;;10.53;;
2840;SDS011;53423;49.224;12.074;2023-02-15T06:59:47;18.73;;;11.23;;
2840;SDS011;53423;49.224;12.074;2023-02-15T07:02:15;22.37;;;11.43;;
2840;SDS011;53423;49.224;12.074;2023-02-15T07:04:43;25.50;;;12.60;;
2840;SDS011;53423;49.224;12.074;2023-02-15T07:07:11;34.00;;;12.83;;
2840;SDS011;53423;49.224;12.074;2023-02-15T07:09:41;21.47;;;12.63;;
2840;SDS011;53423;49.224;12.074;2023-02-15T07:12:08;20.10;;;12.30;;
2840;SDS011;53423;49.224;12.074;2023-02-15T07:14:54;25.63;;;11.97;;
2840;SDS011;53423;49.224;12.074;2023-02-15T07:17:24;24.53;;;12.03;;
2840;SDS011;53423;49.224;12.074;2023-02-15T07:20:03;23.57;;;12.97;;
2840;SDS011;53423;49.224;12.074;2023-02-15T07:22:32;23.00;;;12.00;;
2840;SDS011;53423;49.224;12.074;2023-02-15T07:25:03;18.57;;;11.27;;
2840;SDS011;53423;49.224;12.074;2023-02-15T07:27:32;17.80;;;11.40;;
2840;SDS011;53423;49.224;12.074;2023-02-15T07:30:00;21.70;;;11.40;;
2840;SDS011;53423;49.224;12.074;2023-02-15T07:32:30;24.50;;;12.07;;
2840;SDS011;53423;49.224;12.074;2023-02-15T07:34:59;19.93;;;12.60;;
2840;SDS011;53423;49.224;12.074;2023-02-15T07:37:27;22.33;;;13.03;;
2840;SDS011;53423;49.224;12.074;2023-02-15T07:39:55;17.60;;;12.23;;
2840;SDS011;53423;49.224;12.074;2023-02-15T07:42:24;19.90;;;11.37;;
2840;SDS011;53423;49.224;12.074;2023-02-15T07:44:52;17.77;;;11.20;;
2840;SDS011;53423;49.224;12.074;2023-02-15T07:47:20;16.27;;;10.90;;
2840;SDS011;53423;49.224;12.074;2023-02-15T07:49:48;23.13;;;12.17;;
2840;SDS011;53423;49.224;12.074;2023-02-15T07:52:17;20.57;;;12.33;;
2840;SDS011;53423;49.224;12.074;2023-02-15T07:54:46;23.90;;;13.20;;
2840;SDS011;53423;49.224;12.074;2023-02-15T07:57:13;19.97;;;12.10;;
2840;SDS011;53423;49.224;12.074;2023-02-15T07:59:43;21.70;;;13.20;;
2840;SDS011;53423;49.224;12.074;2023-02-15T08:02:11;19.47;;;12.83;;
2840;SDS011;53423;49.224;12.074;2023-02-15T08:04:43;20.60;;;11.57;;
2840;SDS011;53423;49.224;12.074;2023-02-15T08:07:11;20.47;;;13.53;;
2840;SDS011;53423;49.224;12.074;2023-02-15T08:09:39;25.30;;;13.37;;
2840;SDS011;53423;49.224;12.074;2023-02-15T08:12:07;19.27;;;11.40;;
2840;SDS011;53423;49.224;12.074;2023-02-15T08:14:35;19.87;;;11.70;;
2840;SDS011;53423;49.224;12.074;2023-02-15T08:17:04;18.30;;;10.87;;
2840;SDS011;53423;49.224;12.074;2023-02-15T08:19:32;18.27;;;11.73;;
2840;SDS011;53423;49.224;12.074;2023-02-15T08:22:01;20.13;;;11.87;;
2840;SDS011;53423;49.224;12.074;2023-02-15T08:24:31;20.03;;;12.27;;
2840;SDS011;53423;49.224;12.074;2023-02-15T08:27:00;18.93;;;12.23;;
2840;SDS011;53423;49.224;12.074;2023-02-15T08:29:32;19.13;;;11.73;;
2840;SDS011;53423;49.224;12.074;2023-02-15T08:32:02;20.90;;;11.63;;
2840;SDS011;53423;49.224;12.074;2023-02-15T08:34:33;23.43;;;12.60;;
2840;SDS011;53423;49.224;12.074;2023-02-15T08:37:03;21.53;;;11.63;;
2840;SDS011;53423;49.224;12.074;2023-02-15T08:39:33;20.63;;;12.30;;
2840;SDS011;53423;49.224;12.074;2023-02-15T08:42:01;21.27;;;12.10;;
2840;SDS011;53423;49.224;12.074;2023-02-15T08:44:29;21.20;;;12.20;;
2840;SDS011;53423;49.224;12.074;2023-02-15T08:46:57;21.60;;;12.13;;
2840;SDS011;53423;49.224;12.074;2023-02-15T08:49:30;17.90;;;11.23;;
2840;SDS011;53423;49.224;12.074;2023-02-15T08:51:59;18.83;;;11.80;;
2840;SDS011;53423;49.224;12.074;2023-02-15T08:54:27;17.70;;;11.20;;
2840;SDS011;53423;49.224;12.074;2023-02-15T08:56:55;18.93;;;12.00;;
2840;SDS011;53423;49.224;12.074;2023-02-15T08:59:23;16.27;;;10.77;;
2840;SDS011;53423;49.224;12.074;2023-02-15T09:01:53;17.53;;;11.63;;
2840;SDS011;53423;49.224;12.074;2023-02-15T09:04:21;20.13;;;11.83;;
2840;SDS011;53423;49.224;12.074;2023-02-15T09:06:49;18.10;;;11.40;;
2840;SDS011;53423;49.224;12.074;2023-02-15T09:09:20;17.10;;;10.77;;
2840;SDS011;53423;49.224;12.074;2023-02-15T09:11:49;16.97;;;10.37;;
2840;SDS011;53423;49.224;12.074;2023-02-15T09:14:25;14.00;;;9.63;;
2840;SDS011;53423;49.224;12.074;2023-02-15T09:16:53;16.40;;;10.80;;
2840;SDS011;53423;49.224;12.074;2023-02-15T09:19:22;16.93;;;10.67;;
2840;SDS011;53423;49.224;12.074;2023-02-15T09:21:51;16.63;;;10.43;;
2840;SDS011;53423;49.224;12.074;2023-02-15T09:24:20;15.37;;;10.17;;
2840;SDS011;53423;49.224;12.074;2023-02-15T09:26:48;15.23;;;9.77;;
2840;SDS011;53423;49.224;12.074;2023-02-15T09:29:17;15.93;;;10.73;;
2840;SDS011;53423;49.224;12.074;2023-02-15T09:31:46;16.97;;;10.80;;
2840;SDS011;53423;49.224;12.074;2023-02-15T09:34:16;18.10;;;11.53;;
2840;SDS011;53423;49.224;12.074;2023-02-15T09:36:46;16.90;;;11.17;;
2840;SDS011;53423;49.224;12.074;2023-02-15T09:39:15;17.97;;;11.40;;
2840;SDS011;53423;49.224;12.074;2023-02-15T09:41:58;18.03;;;11.47;;
2840;SDS011;53423;49.224;12.074;2023-02-15T09:44:43;16.20;;;10.80;;
2840;SDS011;53423;49.224;12.074;2023-02-15T09:47:30;18.03;;;11.40;;
2840;SDS011;53423;49.224;12.074;2023-02-15T09:50:12;16.13;;;10.50;;
2840;SDS011;53423;49.224;12.074;2023-02-15T09:52:57;16.00;;;11.23;;
2840;SDS011;53423;49.224;12.074;2023-02-15T09:55:40;18.00;;;11.80;;
2840;SDS011;53423;49.224;12.074;2023-02-15T09:58:19;16.70;;;11.67;;
2840;SDS011;53423;49.224;12.074;2023-02-15T10:00:55;19.67;;;11.70;;
2840;SDS011;53423;49.224;12.074;2023-02-15T10:03:34;17.47;;;11.73;;
2840;SDS011;53423;49.224;12.074;2023-02-15T10:06:17;21.37;;;12.03;;
2840;SDS011;53423;49.224;12.074;2023-02-15T10:09:07;15.17;;;11.17;;
2840;SDS011;53423;49.224;12.074;2023-02-15T10:11:47;16.17;;;11.00;;
2840;SDS011;53423;49.224;12.074;2023-02-15T10:14:40;16.50;;;11.70;;
2840;SDS011;53423;49.224;12.074;2023-02-15T10:17:24;18.50;;;11.57;;
2840;SDS011;53423;49.224;12.074;2023-02-15T10:20:08;17.23;;;12.07;;
2840;SDS011;53423;49.224;12.074;2023-02-15T10:22:50;17.00;;;12.03;;
2840;SDS011;53423;49.224;12.074;2023-02-15T10:25:35;19.50;;;12.23;;
2840;SDS011;53423;49.224;12.074;2023-02-15T10:28:13;18.80;;;12.80;;
2840;SDS011;53423;49.224;12.074;2023-02-15T10:30:47;22.13;;;13.33;;
2840;SDS011;53423;49.224;12.074;2023-02-15T10:33:30;19.10;;;12.87;;
2840;SDS011;53423;49.224;12.074;2023-02-15T10:36:15;18.97;;;13.13;;
2840;SDS011;53423;49.224;12.074;2023-02-15T10:38:58;19.87;;;13.60;;
2840;SDS011;53423;49.224;12.074;2023-02-15T10:41:35;18.33;;;12.63;;
2840;SDS011;53423;49.224;12.074;2023-02-15T10:44:25;20.37;;;13.80;;
2840;SDS011;53423;49.224;12.074;2023-02-15T10:47:10;19.37;;;13.60;;
2840;SDS011;53423;49.224;12.074;2023-02-15T10:49:54;19.27;;;13.97;;
2840;SDS011;53423;49.224;12.074;2023-02-15T10:52:39;19.50;;;12.90;;
2840;SDS011;53423;49.224;12.074;2023-02-15T10:55:23;18.80;;;13.53;;
2840;SDS011;53423;49.224;12.074;2023-02-15T10:57:59;20.00;;;14.33;;
2840;SDS011;53423;49.224;12.074;2023-02-15T11:00:35;19.37;;;13.23;;
2840;SDS011;53423;49.224;12.074;2023-02-15T11:03:23;19.73;;;13.57;;
2840;SDS011;53423;49.224;12.074;2023-02-15T11:06:03;20.23;;;14.40;;
2840;SDS011;53423;49.224;12.074;2023-02-15T11:08:36;17.77;;;12.87;;
2840;SDS011;53423;49.224;12.074;2023-02-15T11:11:09;20.13;;;14.20;;
2840;SDS011;53423;49.224;12.074;2023-02-15T11:13:41;21.10;;;13.90;;
2840;SDS011;53423;49.224;12.074;2023-02-15T11:16:12;20.37;;;13.87;;
2840;SDS011;53423;49.224;12.074;2023-02-15T11:18:47;19.30;;;13.57;;
2840;SDS011;53423;49.224;12.074;2023-02-15T11:21:19;19.13;;;13.60;;
2840;SDS011;53423;49.224;12.074;2023-02-15T11:23:50;19.13;;;13.83;;
2840;SDS011;53423;49.224;12.074;2023-02-15T11:26:20;19.20;;;13.80;;
2840;SDS011;53423;49.224;12.074;2023-02-15T11:28:55;20.17;;;14.53;;
2840;SDS011;53423;49.224;12.074;2023-02-15T11:31:27;19.57;;;14.37;;
2840;SDS011;53423;49.224;12.074;2023-02-15T11:34:10;20.40;;;14.97;;
2840;SDS011;53423;49.224;12.074;2023-02-15T11:36:45;19.13;;;13.70;;
2840;SDS011;53423;49.224;12.074;2023-02-15T11:39:17;20.17;;;14.23;;
2840;SDS011;53423;49.224;12.074;2023-02-15T11:41:49;20.17;;;14.07;;
2840;SDS011;53423;49.224;12.074;2023-02-15T11:44:20;21.40;;;14.97;;
2840;SDS011;53423;49.224;12.074;2023-02-15T11:46:52;19.77;;;13.93;;
2840;SDS011;53423;49.224;12.074;2023-02-15T11:49:22;20.37;;;15.13;;
2840;SDS011;53423;49.224;12.074;2023-02-15T11:51:58;20.43;;;14.50;;
2840;SDS011;53423;49.224;12.074;2023-02-15T11:54:31;22.10;;;15.40;;
2840;SDS011;53423;49.224;12.074;2023-02-15T11:57:03;19.13;;;14.87;;
2840;SDS011;53423;49.224;12.074;2023-02-15T11:59:46;18.80;;;13.73;;
2840;SDS011;53423;49.224;12.074;2023-02-15T12:02:19;19.80;;;14.63;;
2840;SDS011;53423;49.224;12.074;2023-02-15T12:04:51;21.47;;;14.60;;
2840;SDS011;53423;49.224;12.074;2023-02-15T12:07:23;20.63;;;14.60;;
2840;SDS011;53423;49.224;12.074;2023-02-15T12:09:55;18.03;;;13.87;;
2840;SDS011;53423;49.224;12.074;2023-02-15T12:12:28;21.07;;;15.43;;
2840;SDS011;53423;49.224;12.074;2023-02-15T12:14:57;21.90;;;15.57;;
2840;SDS011;53423;49.224;12.074;2023-02-15T12:17:27;22.33;;;15.70;;
2840;SDS011;53423;49.224;12.074;2023-02-15T12:19:59;19.60;;;13.60;;
2840;SDS011;53423;49.224;12.074;2023-02-15T12:22:30;20.13;;;14.90;;
2840;SDS011;53423;49.224;12.074;2023-02-15T12:25:00;20.03;;;15.00;;
2840;SDS011;53423;49.224;12.074;2023-02-15T12:27:30;21.23;;;14.73;;
2840;SDS011;53423;49.224;12.074;2023-02-15T12:30:02;19.43;;;14.90;;
2840;SDS011;53423;49.224;12.074;2023-02-15T12:32:35;20.70;;;15.00;;
2840;SDS011;53423;49.224;12.074;2023-02-15T12:35:29;19.23;;;14.80;;
2840;SDS011;53423;49.224;12.074;2023-02-15T12:38:00;21.87;;;15.13;;
2840;SDS011;53423;49.224;12.074;2023-02-15T12:40:31;19.43;;;15.07;;
2840;SDS011;53423;49.224;12.074;2023-02-15T12:43:01;21.67;;;16.33;;
2840;SDS011;53423;49.224;12.074;2023-02-15T12:45:35;20.90;;;15.63;;
2840;SDS011;53423;49.224;12.074;2023-02-15T12:48:08;19.97;;;14.73;;
2840;SDS011;53423;49.224;12.074;2023-02-15T12:50:48;20.93;;;15.27;;
2840;SDS011;53423;49.224;12.074;2023-02-15T12:53:21;17.70;;;13.60;;
2840;SDS011;53423;49.224;12.074;2023-02-15T12:55:51;20.90;;;15.83;;
2840;SDS011;53423;49.224;12.074;2023-02-15T12:58:21;20.33;;;15.20;;
2840;SDS011;53423;49.224;12.074;2023-02-15T13:01:01;21.60;;;15.80;;
2840;SDS011;53423;49.224;12.074;2023-02-15T13:06:47;20.77;;;15.17;;
2840;SDS011;53423;49.224;12.074;2023-02-15T13:09:19;20.57;;;15.13;;
2840;SDS011;53423;49.224;12.074;2023-02-15T13:11:48;21.37;;;15.67;;
2840;SDS011;53423;49.224;12.074;2023-02-15T13:14:17;19.73;;;14.57;;
2840;SDS011;53423;49.224;12.074;2023-02-15T13:16:50;18.87;;;14.83;;
2840;SDS011;53423;49.224;12.074;2023-02-15T13:19:22;20.23;;;14.47;;
2840;SDS011;53423;49.224;12.074;2023-02-15T13:21:58;20.23;;;15.03;;
2840;SDS011;53423;49.224;12.074;2023-02-15T13:24:32;19.53;;;14.17;;
2840;SDS011;53423;49.224;12.074;2023-02-15T13:27:03;22.23;;;15.70;;
2840;SDS011;53423;49.224;12.074;2023-02-15T13:29:43;19.67;;;14.97;;
2840;SDS011;53423;49.224;12.074;2023-02-15T13:32:19;22.30;;;15.47;;
2840;SDS011;53423;49.224;12.074;2023-02-15T13:34:54;21.40;;;15.47;;
2840;SDS011;53423;49.224;12.074;2023-02-15T13:37:31;20.43;;;15.37;;
2840;SDS011;53423;49.224;12.074;2023-02-15T13:40:17;22.50;;;15.93;;
2840;SDS011;53423;49.224;12.074;2023-02-15T13:42:50;23.40;;;17.07;;
2840;SDS011;53423;49.224;12.074;2023-02-15T13:45:27;22.60;;;16.27;;
2840;SDS011;53423;49.224;12.074;2023-02-15T13:48:06;21.93;;;16.53;;
2840;SDS011;53423;49.224;12.074;2023-02-15T13:50:46;21.90;;;15.97;;
2840;SDS011;53423;49.224;12.074;2023-02-15T13:53:34;22.20;;;16.30;;
2840;SDS011;53423;49.224;12.074;2023-02-15T13:56:12;23.07;;;17.10;;
2840;SDS011;53423;49.224;12.074;2023-02-15T13:59:05;23.23;;;16.30;;
2840;SDS011;53423;49.224;12.074;2023-02-15T14:01:50;24.67;;;16.93;;
2840;SDS011;53423;49.224;12.074;2023-02-15T14:04:37;22.57;;;16.63;;
2840;SDS011;53423;49.224;12.074;2023-02-15T14:07:20;18.70;;;13.87;;
2840;SDS011;53423;49.224;12.074;2023-02-15T14:10:06;19.87;;;14.90;;
2840;SDS011;53423;49.224;12.074;2023-02-15T14:12:52;22.60;;;15.50;;
2840;SDS011;53423;49.224;12.074;2023-02-15T14:15:33;22.17;;;15.63;;
2840;SDS011;53423;49.224;12.074;2023-02-15T14:18:10;21.97;;;16.03;;
2840;SDS011;53423;49.224;12.074;2023-02-15T14:20:51;22.00;;;15.27;;
2840;SDS011;53423;49.224;12.074;2023-02-15T14:23:32;23.40;;;16.73;;
2840;SDS011;53423;49.224;12.074;2023-02-15T14:26:14;22.27;;;15.80;;
2840;SDS011;53423;49.224;12.074;2023-02-15T14:28:50;22.13;;;16.50;;
2840;SDS011;53423;49.224;12.074;2023-02-15T14:31:25;23.77;;;17.07;;
2840;SDS011;53423;49.224;12.074;2023-02-15T14:33:58;25.63;;;17.30;;
2840;SDS011;53423;49.224;12.074;2023-02-15T14:36:26;23.13;;;17.07;;
2840;SDS011;53423;49.224;12.074;2023-02-15T14:42:04;22.67;;;16.37;;
2840;SDS011;53423;49.224;12.074;2023-02-15T14:44:36;22.70;;;16.50;;
2840;SDS011;53423;49.224;12.074;2023-02-15T14:47:10;22.97;;;16.33;;
2840;SDS011;53423;49.224;12.074;2023-02-15T14:49:43;23.30;;;16.23;;
2840;SDS011;53423;49.224;12.074;2023-02-15T14:52:11;23.77;;;16.77;;
2840;SDS011;53423;49.224;12.074;2023-02-15T14:54:53;22.03;;;15.97;;
2840;SDS011;53423;49.224;12.074;2023-02-15T14:57:28;22.20;;;15.90;;
2840;SDS011;53423;49.224;12.074;2023-02-15T15:03:00;23.80;;;16.57;;
2840;SDS011;53423;49.224;12.074;2023-02-15T15:05:31;23.37;;;17.20;;
2840;SDS011;53423;49.224;12.074;2023-02-15T15:08:02;24.30;;;17.77;;
2840;SDS011;53423;49.224;12.074;2023-02-15T15:10:36;26.67;;;17.53;;